Pooler, Georgia
Current Conditions -  °F | °C
As of 6:53 PM on Sunday 21 Dec 2014 (Local Time) from KSAV Reporting Station
Light Rain Light Rain  
Wind Chill: 44°   Ceiling: 800
Heat Index: 47°   Visibility: 4mi
Dew Point: 44°   Wind: 7mph
Humidity: 90%   Direction: 50°NE
Pressure: 30.11"   Gusts: NA
Location:  32.12°N, 81.25°W
Report Text: KSAV 212353Z 05006KT 4SM -RA BR BKN008 OVC020 08/07 A3011 RMK AO2 RAB37 SLP195 P0002 60003 T00830067 10094 20083 58003
Loading
Personal Weather Stations






























Interactive Weather Map New forecast layout! Learn more

10-Day Weather Forecast

Advertisements
Track Severe Weather on mobile